createdAt,value
2022-12-15T00:01:11.457Z,17.58
2022-12-15T00:02:26.846Z,19.52
2022-12-15T00:03:42.430Z,21.75
2022-12-15T00:04:57.815Z,18.63
2022-12-15T00:06:12.712Z,18.65
2022-12-15T00:07:28.030Z,19.77
2022-12-15T00:08:43.377Z,15.85
2022-12-15T00:09:58.277Z,19.08
2022-12-15T00:11:13.866Z,17.83
2022-12-15T00:12:29.156Z,27.90
2022-12-15T00:13:44.106Z,18.88
2022-12-15T00:14:59.225Z,21.20
2022-12-15T00:16:14.276Z,19.20
2022-12-15T00:17:29.361Z,23.83
2022-12-15T00:18:44.343Z,14.75
2022-12-15T00:19:59.634Z,18.25
2022-12-15T00:21:18.733Z,21.52
2022-12-15T00:22:33.859Z,16.17
2022-12-15T00:23:48.830Z,14.63
2022-12-15T00:25:03.705Z,16.98
2022-12-15T00:26:18.680Z,19.08
2022-12-15T00:27:34.101Z,20.98
2022-12-15T00:28:48.979Z,18.30
2022-12-15T00:30:04.553Z,20.02
2022-12-15T00:31:19.513Z,16.50
2022-12-15T00:32:35.034Z,19.35
2022-12-15T00:33:50.226Z,16.83
2022-12-15T00:35:05.254Z,18.95
2022-12-15T00:36:20.476Z,20.63
2022-12-15T00:37:35.599Z,17.02
2022-12-15T00:38:47.621Z,19.23
2022-12-15T00:39:44.445Z,25.05
2022-12-15T00:40:41.071Z,27.08
2022-12-15T00:41:38.071Z,27.58
2022-12-15T00:42:34.630Z,17.77
2022-12-15T00:43:32.955Z,26.52
2022-12-15T00:44:30.416Z,26.55
2022-12-15T00:45:47.011Z,27.42
2022-12-15T00:46:55.499Z,17.85
2022-12-15T00:47:52.236Z,23.40
2022-12-15T00:48:49.178Z,33.38
2022-12-15T00:50:04.123Z,38.08
2022-12-15T00:51:00.827Z,35.88
2022-12-15T00:52:15.930Z,27.38
2022-12-15T00:53:31.158Z,28.05
2022-12-15T00:54:46.342Z,25.25
2022-12-15T00:56:01.328Z,30.48
2022-12-15T00:57:16.244Z,30.52
2022-12-15T00:58:31.320Z,36.13
2022-12-15T00:59:46.188Z,32.22
2022-12-15T01:01:01.250Z,36.60
2022-12-15T01:02:16.325Z,30.02
2022-12-15T01:03:34.289Z,37.33
2022-12-15T01:04:50.251Z,37.75
2022-12-15T01:06:05.486Z,27.35
2022-12-15T01:07:20.644Z,24.55
2022-12-15T01:08:35.634Z,31.20
2022-12-15T01:09:50.629Z,31.77
2022-12-15T01:11:06.040Z,33.20
2022-12-15T01:12:21.276Z,31.80
2022-12-15T01:13:36.315Z,25.50
2022-12-15T01:14:52.258Z,24.10
2022-12-15T01:16:07.149Z,28.58
2022-12-15T01:17:22.388Z,34.75
2022-12-15T01:18:37.331Z,32.55
2022-12-15T01:19:52.745Z,32.30
2022-12-15T01:21:02.699Z,27.35
2022-12-15T01:21:59.330Z,24.40
2022-12-15T01:22:56.207Z,25.02
2022-12-15T01:23:53.591Z,30.02
2022-12-15T01:24:50.287Z,26.95
2022-12-15T01:25:46.830Z,23.60
2022-12-15T01:26:46.444Z,26.73
2022-12-15T01:27:44.118Z,23.25
2022-12-15T01:28:40.853Z,25.05
2022-12-15T01:29:37.872Z,26.65
2022-12-15T01:30:34.468Z,26.88
2022-12-15T01:31:31.116Z,27.77
2022-12-15T01:32:27.956Z,31.00
2022-12-15T01:33:24.575Z,29.15
2022-12-15T01:34:22.780Z,27.90
2022-12-15T01:35:20.341Z,27.63
2022-12-15T01:36:16.916Z,25.17
2022-12-15T01:37:13.570Z,21.33
2022-12-15T01:38:11.059Z,25.42
2022-12-15T01:39:07.677Z,27.02
2022-12-15T01:40:24.664Z,25.35
2022-12-15T01:41:21.459Z,30.10
2022-12-15T01:42:18.416Z,23.20
2022-12-15T01:43:18.124Z,21.73
2022-12-15T01:44:21.885Z,22.20
2022-12-15T01:45:24.210Z,20.90
2022-12-15T01:46:23.471Z,25.08
2022-12-15T01:47:25.110Z,22.40
2022-12-15T01:48:27.591Z,27.35
2022-12-15T01:50:24.784Z,18.85
2022-12-15T01:51:26.120Z,20.55
2022-12-15T01:52:22.857Z,20.30
2022-12-15T01:53:19.515Z,25.40
2022-12-15T01:54:23.929Z,22.10
2022-12-15T01:55:25.158Z,15.68
2022-12-15T01:56:24.952Z,23.50
2022-12-15T01:57:29.015Z,18.08
2022-12-15T01:58:26.611Z,18.35
2022-12-15T01:59:34.089Z,21.67
2022-12-15T02:00:31.004Z,17.85
2022-12-15T02:01:28.045Z,20.08
2022-12-15T02:02:28.132Z,21.00
2022-12-15T02:03:24.908Z,16.73
2022-12-15T02:04:23.830Z,15.07
2022-12-15T02:05:21.596Z,18.40
2022-12-15T02:06:21.758Z,15.05
2022-12-15T02:07:19.753Z,14.85
2022-12-15T02:08:17.189Z,14.88
2022-12-15T02:09:14.274Z,14.65
2022-12-15T02:10:12.004Z,15.07
2022-12-15T02:11:38.331Z,11.55
2022-12-15T02:12:43.807Z,15.13
2022-12-15T02:13:46.788Z,14.05
2022-12-15T02:14:58.399Z,11.60
2022-12-15T02:16:14.390Z,14.13
2022-12-15T02:17:37.263Z,11.95
2022-12-15T02:18:40.370Z,13.25
2022-12-15T02:20:04.867Z,12.35
2022-12-15T02:21:11.277Z,10.52
2022-12-15T02:22:49.565Z,10.45
2022-12-15T02:24:10.727Z,8.05
2022-12-15T02:25:45.967Z,10.75
2022-12-15T02:26:59.517Z,9.00
2022-12-15T02:28:06.516Z,7.50
2022-12-15T02:29:18.408Z,6.43
2022-12-15T02:30:33.216Z,7.90
2022-12-15T02:31:50.412Z,7.05
2022-12-15T02:32:50.216Z,5.28
2022-12-15T02:33:53.365Z,7.50
2022-12-15T02:34:57.935Z,7.90
2022-12-15T02:36:07.722Z,6.32
2022-12-15T02:37:11.563Z,5.85
2022-12-15T02:38:08.954Z,5.15
2022-12-15T02:39:06.302Z,5.82
2022-12-15T02:40:05.617Z,4.65
2022-12-15T02:41:04.431Z,5.40
2022-12-15T02:42:00.990Z,4.93
2022-12-15T02:43:02.972Z,5.80
2022-12-15T02:44:01.937Z,5.05
2022-12-15T02:45:03.181Z,4.00
2022-12-15T02:46:31.316Z,4.10
2022-12-15T02:47:33.824Z,4.53
2022-12-15T02:49:45.950Z,4.28
2022-12-15T02:50:58.373Z,4.05
2022-12-15T02:52:31.491Z,2.85
2022-12-15T02:53:46.379Z,4.00
2022-12-15T02:54:48.839Z,4.78
2022-12-15T02:57:40.894Z,3.35
2022-12-15T02:58:37.490Z,4.45
2022-12-15T02:59:43.020Z,3.33
2022-12-15T03:00:45.564Z,3.03
2022-12-15T03:02:03.682Z,3.88
2022-12-15T03:03:00.873Z,4.22
2022-12-15T03:03:59.857Z,5.57
2022-12-15T03:04:57.837Z,3.90
2022-12-15T03:05:55.500Z,3.95
2022-12-15T03:07:01.129Z,3.40
2022-12-15T03:07:58.397Z,4.03
2022-12-15T03:08:54.996Z,3.83
2022-12-15T03:09:52.198Z,5.35
2022-12-15T03:10:53.018Z,4.10
2022-12-15T03:11:49.866Z,4.57
2022-12-15T03:12:46.588Z,6.97
2022-12-15T03:13:43.244Z,8.38
2022-12-15T03:14:39.877Z,8.55
2022-12-15T03:15:36.881Z,5.50
2022-12-15T03:16:33.722Z,4.90
2022-12-15T03:17:30.387Z,3.90
2022-12-15T03:18:27.246Z,4.65
2022-12-15T03:19:24.466Z,7.53
2022-12-15T03:20:21.051Z,5.78
2022-12-15T03:21:17.711Z,7.50
2022-12-15T03:22:14.291Z,4.47
2022-12-15T03:23:10.838Z,5.30
2022-12-15T03:24:07.702Z,5.82
2022-12-15T03:25:05.208Z,8.77
2022-12-15T03:26:01.804Z,5.55
2022-12-15T03:26:58.382Z,5.00
2022-12-15T03:27:55.058Z,5.85
2022-12-15T03:28:51.642Z,4.43
2022-12-15T03:29:48.226Z,4.82
2022-12-15T03:30:44.879Z,4.97
2022-12-15T03:31:41.571Z,4.68
2022-12-15T03:32:38.161Z,4.38
2022-12-15T03:33:35.185Z,3.70
2022-12-15T03:34:31.981Z,3.90
2022-12-15T03:35:28.655Z,3.58
2022-12-15T03:36:25.246Z,4.20
2022-12-15T03:37:21.968Z,4.28
2022-12-15T03:38:18.980Z,4.40
2022-12-15T03:39:15.691Z,4.45
2022-12-15T03:40:14.017Z,3.85
2022-12-15T03:41:10.647Z,4.50
2022-12-15T03:42:07.326Z,3.25
2022-12-15T03:43:04.009Z,4.38
2022-12-15T03:44:00.774Z,4.57
2022-12-15T03:44:57.416Z,5.63
2022-12-15T03:45:54.128Z,5.45
2022-12-15T03:46:50.772Z,3.72
2022-12-15T03:47:48.070Z,5.40
2022-12-15T03:48:44.750Z,3.63
2022-12-15T03:49:41.337Z,5.15
2022-12-15T03:50:38.060Z,4.07
2022-12-15T03:51:34.680Z,4.15
2022-12-15T03:52:31.666Z,4.10
2022-12-15T03:53:28.502Z,4.13
2022-12-15T03:54:25.283Z,3.67
2022-12-15T03:55:22.653Z,2.78
2022-12-15T03:56:19.405Z,3.28
2022-12-15T03:57:16.001Z,3.28
2022-12-15T03:58:12.610Z,3.30
2022-12-15T03:59:09.139Z,3.22
2022-12-15T04:00:07.299Z,3.17
2022-12-15T04:01:21.364Z,3.95
2022-12-15T04:02:18.176Z,3.28
2022-12-15T04:03:14.969Z,4.35
2022-12-15T04:04:11.595Z,3.35
2022-12-15T04:05:09.233Z,3.08
2022-12-15T04:06:06.159Z,3.50
2022-12-15T04:07:02.726Z,3.78
2022-12-15T04:08:00.717Z,3.42
2022-12-15T04:08:57.603Z,6.30
2022-12-15T04:09:54.127Z,3.67
2022-12-15T04:10:50.729Z,3.10
2022-12-15T04:11:47.314Z,3.55
2022-12-15T04:12:43.995Z,2.40
2022-12-15T04:13:40.940Z,2.75
2022-12-15T04:14:42.619Z,3.97
2022-12-15T04:15:40.484Z,3.35
2022-12-15T04:16:37.140Z,3.38
2022-12-15T04:17:34.089Z,5.32
2022-12-15T04:18:30.833Z,3.20
2022-12-15T04:19:46.040Z,3.45
2022-12-15T04:20:42.671Z,3.67
2022-12-15T04:21:39.314Z,3.28
2022-12-15T04:22:41.080Z,4.47
2022-12-15T04:23:37.676Z,4.47
2022-12-15T04:24:52.679Z,3.03
2022-12-15T04:26:08.642Z,4.68
2022-12-15T04:27:23.757Z,3.65
2022-12-15T04:28:38.973Z,3.58
2022-12-15T04:29:54.171Z,2.55
2022-12-15T04:31:28.738Z,3.47
2022-12-15T04:32:43.997Z,5.00
2022-12-15T04:34:08.559Z,8.43
2022-12-15T04:35:24.305Z,4.82
2022-12-15T04:36:39.824Z,4.53
2022-12-15T04:37:55.473Z,5.18
2022-12-15T04:39:10.798Z,4.68
2022-12-15T04:40:26.889Z,4.75
2022-12-15T04:41:43.554Z,5.13
2022-12-15T04:43:02.735Z,3.63
2022-12-15T04:44:18.226Z,5.28
2022-12-15T04:45:35.414Z,4.10
2022-12-15T04:46:50.779Z,4.30
2022-12-15T04:48:06.777Z,3.90
2022-12-15T04:49:21.696Z,4.03
2022-12-15T04:50:36.658Z,3.60
2022-12-15T04:51:52.658Z,4.05
2022-12-15T04:53:08.110Z,4.95
2022-12-15T04:54:23.053Z,5.32
2022-12-15T04:55:37.957Z,3.30
2022-12-15T04:56:53.425Z,5.15
2022-12-15T04:58:08.255Z,4.97
2022-12-15T04:59:23.438Z,4.53
2022-12-15T05:00:38.606Z,5.25
2022-12-15T05:01:53.633Z,6.70
2022-12-15T05:03:11.307Z,6.03
2022-12-15T05:04:30.257Z,5.10
2022-12-15T05:05:45.431Z,5.80
2022-12-15T05:07:00.589Z,4.22
2022-12-15T05:08:18.664Z,3.40
2022-12-15T05:09:33.505Z,2.90
2022-12-15T05:10:48.456Z,3.83
2022-12-15T05:12:03.369Z,4.95
2022-12-15T05:13:26.072Z,4.35
2022-12-15T05:14:41.227Z,13.85
2022-12-15T05:15:56.312Z,10.18
2022-12-15T05:17:11.373Z,4.85
2022-12-15T05:18:26.631Z,4.20
2022-12-15T05:19:41.612Z,4.82
2022-12-15T05:20:56.759Z,7.40
2022-12-15T05:22:11.924Z,5.60
2022-12-15T05:23:27.357Z,4.40
2022-12-15T05:24:42.578Z,4.65
2022-12-15T05:25:57.671Z,4.30
2022-12-15T05:27:12.577Z,5.03
2022-12-15T05:28:27.695Z,4.63
2022-12-15T05:29:42.566Z,5.20
2022-12-15T05:30:57.428Z,5.80
2022-12-15T05:31:54.922Z,4.95
2022-12-15T05:32:51.672Z,4.07
2022-12-15T05:33:48.258Z,5.18
2022-12-15T05:34:45.281Z,4.50
2022-12-15T05:35:41.988Z,5.80
2022-12-15T05:36:38.582Z,4.72
2022-12-15T05:37:35.223Z,4.47
2022-12-15T05:38:31.850Z,4.40
2022-12-15T05:39:28.768Z,4.80
2022-12-15T05:40:25.362Z,4.32
2022-12-15T05:41:22.372Z,3.58
2022-12-15T05:42:18.938Z,3.78
2022-12-15T05:43:15.512Z,3.50
2022-12-15T05:44:12.642Z,3.40
2022-12-15T05:45:10.281Z,5.88
2022-12-15T05:46:06.962Z,4.55
2022-12-15T05:47:04.829Z,3.22
2022-12-15T05:48:01.535Z,3.90
2022-12-15T05:48:58.178Z,4.18
2022-12-15T05:49:54.824Z,4.72
2022-12-15T05:50:51.429Z,2.80
2022-12-15T05:51:48.372Z,3.15
2022-12-15T05:52:49.336Z,3.97
2022-12-15T05:53:46.203Z,4.93
2022-12-15T05:54:42.859Z,4.00
2022-12-15T05:55:39.428Z,3.40
2022-12-15T05:56:36.547Z,2.97
2022-12-15T05:57:33.228Z,3.33
2022-12-15T05:58:29.815Z,3.80
2022-12-15T05:59:26.454Z,5.53
2022-12-15T06:00:23.589Z,3.72
2022-12-15T06:01:20.347Z,4.47
2022-12-15T06:02:17.162Z,7.30
2022-12-15T06:03:13.892Z,4.82
2022-12-15T06:04:13.663Z,4.28
2022-12-15T06:05:10.424Z,4.22
2022-12-15T06:06:08.751Z,4.10
2022-12-15T06:07:05.512Z,4.30
2022-12-15T06:08:02.166Z,5.80
2022-12-15T06:08:58.939Z,5.22
2022-12-15T06:09:55.568Z,3.92
2022-12-15T06:10:56.011Z,3.08
2022-12-15T06:11:52.721Z,2.47
2022-12-15T06:12:49.270Z,3.03
2022-12-15T06:13:46.712Z,2.58
2022-12-15T06:14:43.350Z,3.50
2022-12-15T06:15:39.958Z,3.83
2022-12-15T06:16:42.553Z,3.13
2022-12-15T06:17:40.899Z,4.25
2022-12-15T06:18:39.843Z,3.42
2022-12-15T06:19:36.379Z,4.05
2022-12-15T06:20:32.989Z,4.85
2022-12-15T06:21:32.765Z,4.22
2022-12-15T06:22:29.877Z,5.30
2022-12-15T06:23:28.971Z,4.20
2022-12-15T06:24:26.126Z,4.38
2022-12-15T06:25:22.769Z,3.40
2022-12-15T06:26:25.503Z,5.85
2022-12-15T06:27:22.142Z,3.60
2022-12-15T06:28:23.857Z,2.58
2022-12-15T06:29:20.467Z,3.33
2022-12-15T06:30:17.129Z,3.63
2022-12-15T06:31:14.627Z,2.60
2022-12-15T06:32:11.224Z,3.20
2022-12-15T06:33:07.807Z,3.88
2022-12-15T06:34:06.890Z,3.17
2022-12-15T06:35:03.606Z,3.85
2022-12-15T06:36:11.437Z,3.92
2022-12-15T06:37:08.117Z,7.13
2022-12-15T06:38:04.669Z,6.75
2022-12-15T06:39:02.709Z,4.28
2022-12-15T06:39:59.314Z,3.97
2022-12-15T06:40:56.702Z,3.58
2022-12-15T06:41:53.343Z,3.40
2022-12-15T06:42:49.986Z,3.55
2022-12-15T06:43:51.323Z,3.83
2022-12-15T06:44:48.133Z,3.22
2022-12-15T06:45:50.523Z,2.50
2022-12-15T06:46:47.290Z,2.50
2022-12-15T06:47:43.948Z,2.85
2022-12-15T06:48:42.301Z,2.60
2022-12-15T06:49:38.951Z,3.50
2022-12-15T06:50:35.647Z,4.82
2022-12-15T06:51:32.794Z,3.42
2022-12-15T06:52:30.815Z,5.80
2022-12-15T06:53:27.525Z,3.53
2022-12-15T06:54:24.887Z,3.25
2022-12-15T06:55:21.739Z,5.25
2022-12-15T06:56:28.923Z,4.50
2022-12-15T06:57:29.631Z,3.55
2022-12-15T06:58:26.189Z,3.28
2022-12-15T06:59:22.784Z,8.65
2022-12-15T07:00:19.754Z,4.20
2022-12-15T07:01:17.709Z,5.90
2022-12-15T07:02:20.146Z,7.55
2022-12-15T07:03:20.217Z,7.32
2022-12-15T07:04:17.149Z,6.18
2022-12-15T07:05:13.817Z,6.07
2022-12-15T07:06:13.206Z,4.10
2022-12-15T07:07:10.840Z,4.90
2022-12-15T07:08:07.505Z,5.32
2022-12-15T07:09:07.535Z,6.88
2022-12-15T07:10:04.691Z,4.80
2022-12-15T07:11:04.003Z,7.03
2022-12-15T07:12:00.783Z,6.47
2022-12-15T07:12:57.927Z,5.93
2022-12-15T07:13:54.624Z,4.07
2022-12-15T07:14:53.562Z,5.18
2022-12-15T07:15:50.736Z,4.95
2022-12-15T07:16:47.557Z,5.68
2022-12-15T07:17:44.205Z,5.53
2022-12-15T07:18:41.413Z,5.80
2022-12-15T07:19:38.098Z,4.40
2022-12-15T07:20:34.779Z,4.28
2022-12-15T07:21:32.314Z,4.20
2022-12-15T07:22:29.183Z,4.97
2022-12-15T07:23:46.011Z,5.80
2022-12-15T07:24:42.316Z,4.32
2022-12-15T07:25:39.979Z,5.93
2022-12-15T07:26:36.572Z,6.70
2022-12-15T07:27:33.243Z,6.30
2022-12-15T07:28:30.822Z,6.85
2022-12-15T07:29:27.705Z,7.97
2022-12-15T07:30:24.309Z,6.70
2022-12-15T07:31:21.593Z,7.00
2022-12-15T07:32:18.821Z,7.65
2022-12-15T07:33:15.985Z,7.63
2022-12-15T07:34:12.603Z,8.45
2022-12-15T07:35:09.521Z,10.13
2022-12-15T07:36:08.279Z,9.10
2022-12-15T07:37:04.972Z,9.05
2022-12-15T07:38:01.567Z,9.48
2022-12-15T07:39:02.842Z,10.50
2022-12-15T07:39:59.385Z,9.73
2022-12-15T07:41:00.520Z,9.02
2022-12-15T07:41:57.076Z,6.88
2022-12-15T07:42:53.745Z,10.45
2022-12-15T07:43:50.327Z,8.07
2022-12-15T07:44:46.970Z,7.60
2022-12-15T07:45:52.448Z,8.95
2022-12-15T07:47:50.274Z,7.47
2022-12-15T07:48:50.364Z,8.48
2022-12-15T07:49:47.746Z,8.95
2022-12-15T07:50:44.673Z,10.93
2022-12-15T07:51:41.675Z,16.13
2022-12-15T07:52:38.244Z,16.65
2022-12-15T07:53:35.925Z,19.63
2022-12-15T07:54:32.850Z,17.50
2022-12-15T07:55:57.048Z,20.95
2022-12-15T07:56:50.187Z,16.30
2022-12-15T07:57:48.227Z,14.70
2022-12-15T07:58:45.093Z,17.98
2022-12-15T07:59:42.074Z,18.25
2022-12-15T08:00:40.729Z,16.60
2022-12-15T08:01:40.627Z,17.42
2022-12-15T08:02:37.399Z,16.55
2022-12-15T08:03:35.056Z,17.88
2022-12-15T08:04:32.221Z,16.63
2022-12-15T08:05:28.936Z,16.60
2022-12-15T08:06:25.607Z,13.75
2022-12-15T08:07:22.224Z,12.82
2022-12-15T08:08:18.813Z,13.77
2022-12-15T08:09:15.531Z,15.35
2022-12-15T08:10:12.231Z,13.55
2022-12-15T08:11:12.004Z,12.90
2022-12-15T08:12:08.576Z,14.50
2022-12-15T08:13:05.228Z,13.65
2022-12-15T08:14:03.541Z,14.32
2022-12-15T08:15:01.481Z,14.35
2022-12-15T08:15:58.094Z,13.98
2022-12-15T08:16:55.068Z,11.45
2022-12-15T08:17:51.688Z,14.90
2022-12-15T08:18:49.012Z,15.02
2022-12-15T08:19:45.765Z,14.00
2022-12-15T08:20:42.409Z,16.52
2022-12-15T08:21:40.485Z,14.82
2022-12-15T08:22:37.982Z,14.32
2022-12-15T08:23:35.692Z,19.08
2022-12-15T08:24:32.345Z,18.33
2022-12-15T08:25:29.030Z,19.27
2022-12-15T08:26:30.277Z,16.30
2022-12-15T08:27:27.481Z,12.77
2022-12-15T08:28:24.183Z,19.13
2022-12-15T08:30:37.578Z,14.93
2022-12-15T08:31:34.667Z,16.35
2022-12-15T08:32:31.339Z,16.38
2022-12-15T08:33:28.272Z,14.98
2022-12-15T08:34:25.134Z,15.77
2022-12-15T08:35:54.420Z,13.82
2022-12-15T08:36:38.320Z,14.07
2022-12-15T08:37:34.996Z,15.65
2022-12-15T08:38:33.123Z,15.02
2022-12-15T08:39:29.858Z,14.10
2022-12-15T08:40:26.487Z,12.57
2022-12-15T08:41:33.550Z,12.52
2022-12-15T08:42:37.319Z,13.07
2022-12-15T08:43:34.238Z,13.10
2022-12-15T08:44:31.573Z,12.50
2022-12-15T08:45:28.299Z,10.80
2022-12-15T08:46:36.360Z,11.75
2022-12-15T08:47:32.957Z,11.55
2022-12-15T08:48:30.134Z,12.15
2022-12-15T08:49:26.751Z,14.43
2022-12-15T08:50:23.371Z,14.52
2022-12-15T08:51:21.297Z,13.27
2022-12-15T08:52:17.928Z,12.80
2022-12-15T08:53:42.579Z,14.43
2022-12-15T08:54:32.538Z,11.20
2022-12-15T08:55:29.151Z,12.35
2022-12-15T08:56:27.609Z,12.68
2022-12-15T08:57:24.271Z,12.93
2022-12-15T08:58:21.074Z,9.23
2022-12-15T08:59:17.840Z,12.48
2022-12-15T09:00:16.134Z,9.23
2022-12-15T09:01:23.737Z,9.57
2022-12-15T09:02:21.036Z,9.35
2022-12-15T09:03:17.687Z,9.68
2022-12-15T09:04:14.460Z,9.23
2022-12-15T09:05:11.174Z,9.60
2022-12-15T09:06:15.780Z,8.57
2022-12-15T09:07:12.483Z,8.07
2022-12-15T09:08:09.154Z,8.15
2022-12-15T09:09:07.773Z,7.68
2022-12-15T09:10:04.648Z,9.38
2022-12-15T09:11:02.261Z,7.63
2022-12-15T09:11:59.064Z,9.13
2022-12-15T09:12:55.700Z,11.68
2022-12-15T09:13:52.515Z,8.73
2022-12-15T09:14:49.072Z,9.02
2022-12-15T09:16:09.032Z,8.98
2022-12-15T09:17:02.407Z,8.65
2022-12-15T09:17:59.024Z,9.18
2022-12-15T09:18:57.946Z,11.80
2022-12-15T09:19:54.563Z,9.45
2022-12-15T09:20:51.228Z,9.07
2022-12-15T09:21:48.365Z,14.15
2022-12-15T09:22:45.006Z,8.77
2022-12-15T09:23:52.450Z,10.52
2022-12-15T09:24:49.701Z,9.48
2022-12-15T09:25:46.734Z,10.45
2022-12-15T09:26:43.391Z,10.65
2022-12-15T09:27:39.992Z,10.38
2022-12-15T09:28:37.999Z,10.43
2022-12-15T09:29:35.077Z,9.05
2022-12-15T09:30:31.819Z,10.77
2022-12-15T09:31:32.810Z,9.98
2022-12-15T09:32:29.578Z,13.10
2022-12-15T09:33:26.330Z,11.77
2022-12-15T09:34:22.969Z,10.07
2022-12-15T09:35:20.775Z,11.85
2022-12-15T09:36:17.430Z,13.13
2022-12-15T09:37:14.077Z,14.35
2022-12-15T09:38:10.761Z,12.82
2022-12-15T09:39:08.912Z,14.15
2022-12-15T09:40:06.696Z,12.80
2022-12-15T09:41:13.979Z,13.60
2022-12-15T09:42:24.807Z,13.05
2022-12-15T09:43:46.469Z,13.57
2022-12-15T09:44:43.436Z,9.35
2022-12-15T09:45:43.735Z,11.07
2022-12-15T09:47:07.124Z,8.70
2022-12-15T09:48:10.519Z,9.75
2022-12-15T09:49:48.219Z,10.13
2022-12-15T09:50:48.077Z,9.65
2022-12-15T09:51:51.734Z,10.95
2022-12-15T09:53:00.299Z,10.75
2022-12-15T09:53:57.383Z,9.48
2022-12-15T09:54:54.789Z,8.82
2022-12-15T09:56:00.504Z,8.27
2022-12-15T09:57:03.524Z,9.25
2022-12-15T09:58:11.563Z,9.63
2022-12-15T09:59:34.151Z,11.32
2022-12-15T10:00:45.636Z,14.27
2022-12-15T10:01:49.330Z,9.55
2022-12-15T10:03:05.093Z,9.80
2022-12-15T10:04:12.736Z,11.32
2022-12-15T10:06:54.782Z,11.65
2022-12-15T10:07:51.958Z,12.93
2022-12-15T10:08:54.556Z,8.38
2022-12-15T10:09:51.169Z,10.43
2022-12-15T10:11:02.306Z,8.88
2022-12-15T10:12:05.248Z,8.85
2022-12-15T10:13:13.519Z,6.68
2022-12-15T10:14:28.266Z,6.68
2022-12-15T10:15:27.545Z,7.35
2022-12-15T10:16:36.443Z,7.15
2022-12-15T10:17:52.295Z,7.22
2022-12-15T10:19:14.118Z,9.43
2022-12-15T10:20:19.609Z,6.53
2022-12-15T10:21:16.243Z,7.13
2022-12-15T10:22:25.942Z,8.10
2022-12-15T10:23:22.697Z,8.35
2022-12-15T10:24:59.780Z,10.85
2022-12-15T10:25:46.905Z,7.10
2022-12-15T10:26:55.663Z,7.90
2022-12-15T10:28:33.764Z,5.82
2022-12-15T10:29:43.249Z,8.00
2022-12-15T10:30:50.163Z,7.13
2022-12-15T10:31:54.838Z,7.10
2022-12-15T10:33:11.440Z,7.38
2022-12-15T10:34:26.895Z,7.28
2022-12-15T10:35:28.782Z,6.80
2022-12-15T10:36:25.438Z,6.57
2022-12-15T10:37:22.055Z,5.88
2022-12-15T10:38:42.426Z,6.75
2022-12-15T10:39:41.636Z,9.65
2022-12-15T10:41:08.741Z,7.45
2022-12-15T10:42:17.491Z,7.20
2022-12-15T10:43:38.521Z,5.47
2022-12-15T10:44:40.409Z,7.00
2022-12-15T10:45:39.919Z,5.97
2022-12-15T10:46:36.573Z,5.40
2022-12-15T10:47:33.234Z,6.13
2022-12-15T10:48:30.212Z,7.13
2022-12-15T10:49:26.775Z,7.28
2022-12-15T10:50:25.526Z,4.75
2022-12-15T10:51:31.479Z,6.60
2022-12-15T10:52:34.239Z,6.63
2022-12-15T10:53:50.556Z,9.15
2022-12-15T10:54:49.480Z,10.82
2022-12-15T10:55:50.066Z,9.50
2022-12-15T10:56:53.055Z,13.77
2022-12-15T10:57:59.381Z,11.60
2022-12-15T10:58:58.944Z,9.88
2022-12-15T10:59:59.481Z,9.05
2022-12-15T11:01:17.743Z,11.05
2022-12-15T11:02:32.852Z,10.68
2022-12-15T11:03:31.073Z,10.35
2022-12-15T11:04:32.667Z,10.23
2022-12-15T11:05:29.370Z,8.40
2022-12-15T11:06:31.583Z,7.97
2022-12-15T11:07:37.820Z,10.68
2022-12-15T11:08:34.953Z,8.55
2022-12-15T11:09:36.977Z,8.63
2022-12-15T11:10:52.141Z,11.43
2022-12-15T11:12:11.932Z,10.30
2022-12-15T11:13:35.407Z,8.52
2022-12-15T11:14:43.873Z,9.50
2022-12-15T11:15:44.278Z,8.98
2022-12-15T11:16:51.866Z,9.85
2022-12-15T11:17:57.673Z,8.85
2022-12-15T11:19:13.965Z,7.55
2022-12-15T11:20:22.219Z,7.80
2022-12-15T11:21:28.214Z,8.57
2022-12-15T11:22:46.163Z,8.60
2022-12-15T11:24:02.046Z,9.65
2022-12-15T11:25:05.630Z,14.13
2022-12-15T11:26:13.756Z,9.80
2022-12-15T11:27:15.543Z,9.07
2022-12-15T11:28:20.661Z,7.72
2022-12-15T11:29:23.502Z,7.15
2022-12-15T11:30:35.348Z,7.10
2022-12-15T11:31:41.828Z,8.38
2022-12-15T11:32:42.914Z,7.93
2022-12-15T11:33:39.603Z,6.80
2022-12-15T11:34:39.230Z,10.30
2022-12-15T11:35:48.930Z,7.13
2022-12-15T11:37:06.718Z,7.72
2022-12-15T11:38:24.484Z,6.80
2022-12-15T11:39:33.315Z,5.75
2022-12-15T11:40:36.436Z,5.70
2022-12-15T11:41:41.564Z,7.00
2022-12-15T11:42:40.859Z,4.53
2022-12-15T11:43:50.367Z,5.53
2022-12-15T11:45:07.472Z,5.45
2022-12-15T11:46:09.959Z,6.05
2022-12-15T11:47:19.446Z,4.90
2022-12-15T11:48:20.894Z,6.75
2022-12-15T11:49:26.792Z,7.47
2022-12-15T11:50:31.973Z,5.10
2022-12-15T11:51:58.970Z,6.15
2022-12-15T11:52:55.623Z,5.78
2022-12-15T11:54:07.083Z,5.38
2022-12-15T11:55:14.911Z,4.13
2022-12-15T11:56:37.081Z,6.32
2022-12-15T11:57:53.023Z,5.20
2022-12-15T11:59:22.341Z,5.43
2022-12-15T12:00:20.786Z,5.50
2022-12-15T12:01:29.008Z,5.43
2022-12-15T12:03:03.441Z,5.05
2022-12-15T12:05:23.675Z,5.07
2022-12-15T12:06:32.842Z,6.85
2022-12-15T12:07:42.103Z,4.30
2022-12-15T12:08:47.115Z,6.13
2022-12-15T12:10:01.167Z,5.38
2022-12-15T12:11:00.450Z,6.55
2022-12-15T12:12:11.956Z,7.35
2022-12-15T12:13:17.306Z,7.32
2022-12-15T12:14:39.125Z,5.72
2022-12-15T12:15:39.906Z,5.88
2022-12-15T12:16:42.297Z,7.57
2022-12-15T12:18:03.152Z,6.22
2022-12-15T12:19:13.579Z,5.20
2022-12-15T12:20:27.102Z,5.32
2022-12-15T12:21:32.941Z,5.55
2022-12-15T12:23:02.428Z,6.53
2022-12-15T12:24:04.085Z,6.40
2022-12-15T12:25:15.457Z,5.28
2022-12-15T12:26:29.257Z,7.55
2022-12-15T12:27:50.323Z,6.65
2022-12-15T12:28:52.808Z,6.68
2022-12-15T12:29:53.883Z,5.75
2022-12-15T12:30:52.744Z,7.32
2022-12-15T12:32:04.023Z,6.82
2022-12-15T12:33:11.143Z,6.57
2022-12-15T12:34:27.027Z,7.57
2022-12-15T12:35:35.037Z,6.65
2022-12-15T12:36:31.740Z,6.90
2022-12-15T12:37:42.074Z,6.90
2022-12-15T12:38:46.346Z,5.97
2022-12-15T12:39:49.700Z,8.35
2022-12-15T12:40:56.860Z,8.20
2022-12-15T12:41:56.314Z,6.95
2022-12-15T12:43:00.132Z,6.43
2022-12-15T12:44:00.892Z,8.05
2022-12-15T12:44:57.496Z,7.78
2022-12-15T12:45:59.492Z,8.98
2022-12-15T12:46:59.210Z,8.85
2022-12-15T12:48:00.759Z,7.30
2022-12-15T12:49:09.282Z,12.30
2022-12-15T12:50:21.445Z,14.50
2022-12-15T12:51:30.716Z,7.97
2022-12-15T12:52:34.704Z,8.18
2022-12-15T12:53:34.661Z,8.23
2022-12-15T12:54:34.403Z,8.00
2022-12-15T12:55:42.587Z,8.30
2022-12-15T12:58:02.943Z,8.43
2022-12-15T12:58:59.614Z,8.38
2022-12-15T13:00:24.390Z,7.80
2022-12-15T13:01:33.020Z,9.10
2022-12-15T13:02:35.285Z,8.30
2022-12-15T13:04:29.296Z,9.05
2022-12-15T13:05:34.705Z,7.68
2022-12-15T13:06:34.870Z,8.15
2022-12-15T13:07:37.765Z,9.98
2022-12-15T13:08:51.372Z,8.52
2022-12-15T13:10:02.851Z,8.65
2022-12-15T13:11:45.786Z,7.60
2022-12-15T13:12:53.789Z,8.32
2022-12-15T13:13:53.186Z,9.38
2022-12-15T13:14:52.740Z,8.75
2022-12-15T13:15:51.209Z,7.70
2022-12-15T13:17:17.219Z,7.80
2022-12-15T13:18:18.922Z,8.25
2022-12-15T13:19:15.567Z,7.38
2022-12-15T13:20:22.950Z,6.18
2022-12-15T13:21:48.523Z,7.45
2022-12-15T13:22:45.766Z,6.68
2022-12-15T13:23:46.104Z,8.02
2022-12-15T13:24:50.695Z,7.07
2022-12-15T13:25:56.057Z,6.90
2022-12-15T13:26:53.395Z,7.75
2022-12-15T13:28:11.040Z,8.25
2022-12-15T13:29:09.623Z,7.45
2022-12-15T13:30:09.401Z,7.97
2022-12-15T13:31:21.312Z,8.27
2022-12-15T13:32:29.360Z,7.88
2022-12-15T13:33:27.284Z,11.65
2022-12-15T13:34:26.342Z,7.93
2022-12-15T13:35:29.442Z,7.22
2022-12-15T13:36:38.291Z,7.95
2022-12-15T13:37:55.960Z,6.65
2022-12-15T13:38:55.330Z,6.95
2022-12-15T13:39:55.587Z,8.55
2022-12-15T13:40:54.240Z,6.97
2022-12-15T13:42:31.475Z,8.25
2022-12-15T13:43:41.622Z,8.10
2022-12-15T13:44:44.122Z,8.82
2022-12-15T13:45:51.189Z,8.55
2022-12-15T13:46:48.773Z,7.88
2022-12-15T13:47:53.653Z,7.45
2022-12-15T13:49:13.868Z,7.95
2022-12-15T13:50:20.163Z,6.53
2022-12-15T13:51:32.041Z,6.90
2022-12-15T13:54:21.794Z,7.72
2022-12-15T13:55:32.396Z,6.88
2022-12-15T13:56:31.853Z,7.45
2022-12-15T13:57:33.198Z,9.70
2022-12-15T13:58:39.804Z,7.88
2022-12-15T14:00:10.819Z,7.22
2022-12-15T14:01:28.555Z,8.68
2022-12-15T14:02:31.020Z,5.72
2022-12-15T14:03:27.808Z,7.15
2022-12-15T14:04:24.598Z,7.82
2022-12-15T14:05:22.937Z,6.60
2022-12-15T14:06:19.536Z,7.93
2022-12-15T14:07:17.102Z,12.20
2022-12-15T14:08:15.886Z,7.43
2022-12-15T14:09:15.057Z,8.70
2022-12-15T14:10:24.778Z,6.88
2022-12-15T14:11:51.249Z,8.48
2022-12-15T14:12:42.027Z,7.72
2022-12-15T14:13:38.711Z,8.90
2022-12-15T14:14:38.025Z,8.40
2022-12-15T14:15:35.637Z,8.10